createdAt,value
2018-08-19T00:01:05.520Z,100633.84
2018-08-19T00:03:46.804Z,100624.74
2018-08-19T00:06:37.290Z,100630.16
2018-08-19T00:12:01.259Z,100622.89
2018-08-19T00:14:32.676Z,100628.80
2018-08-19T00:17:08.265Z,100622.36
2018-08-19T00:22:24.305Z,100637.23
2018-08-19T00:24:53.440Z,100631.83
2018-08-19T00:27:22.273Z,100628.98
2018-08-19T00:29:51.232Z,100633.05
2018-08-19T00:32:20.001Z,100644.19
2018-08-19T00:34:48.772Z,100638.28
2018-08-19T00:37:20.768Z,100635.58
2018-08-19T00:39:58.612Z,100628.67
2018-08-19T00:42:28.866Z,100634.08
2018-08-19T00:44:57.695Z,100629.00
2018-08-19T00:47:26.466Z,100628.00
2018-08-19T00:50:03.958Z,100619.39
2018-08-19T00:52:33.086Z,100632.39
2018-08-19T00:58:00.058Z,100621.92
2018-08-19T01:00:30.066Z,100607.04
2018-08-19T01:03:06.028Z,100613.31
2018-08-19T01:05:34.822Z,100619.58
2018-08-19T01:08:16.678Z,100612.81
2018-08-19T01:10:45.602Z,100614.98
2018-08-19T01:15:59.916Z,100621.61
2018-08-19T01:19:33.007Z,100617.91
2018-08-19T01:25:36.841Z,100624.81
2018-08-19T01:28:20.226Z,100631.58
2018-08-19T01:30:49.029Z,100627.52
2018-08-19T01:33:24.713Z,100629.22
2018-08-19T01:35:53.535Z,100627.37
2018-08-19T01:38:50.496Z,100630.08
2018-08-19T01:41:29.462Z,100622.78
2018-08-19T01:44:22.192Z,100626.84
2018-08-19T01:46:51.549Z,100621.79
2018-08-19T01:49:20.341Z,100628.05
2018-08-19T01:52:08.699Z,100627.56
2018-08-19T01:55:18.055Z,100622.64
2018-08-19T01:57:48.210Z,100618.59
2018-08-19T02:00:17.737Z,100606.91
2018-08-19T02:02:57.971Z,100617.23
2018-08-19T02:05:36.801Z,100625.35
2018-08-19T02:08:05.897Z,100624.50
2018-08-19T02:10:35.590Z,100632.11
2018-08-19T02:13:08.322Z,100608.77
2018-08-19T02:15:54.636Z,100616.20
2018-08-19T02:18:23.859Z,100618.59
2018-08-19T02:20:56.921Z,100621.79
2018-08-19T02:23:53.192Z,100621.30
2018-08-19T02:26:32.913Z,100608.27
2018-08-19T02:29:43.163Z,100615.20
2018-08-19T02:32:11.968Z,100621.11
2018-08-19T02:34:42.630Z,100613.98
2018-08-19T02:37:14.955Z,100622.28
2018-08-19T02:39:51.137Z,100627.69
2018-08-19T02:42:27.013Z,100625.98
2018-08-19T02:45:04.576Z,100634.27
2018-08-19T02:47:34.778Z,100626.16
2018-08-19T02:50:08.070Z,100636.61
2018-08-19T02:52:43.571Z,100642.02
2018-08-19T02:55:12.353Z,100641.34
2018-08-19T02:57:41.478Z,100632.38
2018-08-19T03:00:12.873Z,100639.98
2018-08-19T03:02:42.924Z,100648.60
2018-08-19T03:05:13.576Z,100644.55
2018-08-19T03:07:42.780Z,100640.13
2018-08-19T03:10:13.879Z,100632.48
2018-08-19T03:12:43.126Z,100652.83
2018-08-19T03:15:13.338Z,100661.94
2018-08-19T03:17:42.908Z,100657.88
2018-08-19T03:20:14.129Z,100663.79
2018-08-19T03:22:43.192Z,100666.50
2018-08-19T03:25:12.336Z,100667.52
2018-08-19T03:27:41.165Z,100665.64
2018-08-19T03:30:12.265Z,100667.52
2018-08-19T03:32:46.812Z,100676.45
2018-08-19T03:35:16.486Z,100685.24
2018-08-19T03:37:45.245Z,100679.34
2018-08-19T03:40:14.339Z,100685.73
2018-08-19T03:42:43.157Z,100691.51
2018-08-19T03:45:17.358Z,100696.56
2018-08-19T03:47:46.554Z,100697.59
2018-08-19T03:50:20.297Z,100705.20
2018-08-19T03:52:49.250Z,100697.91
2018-08-19T03:55:23.303Z,100705.70
2018-08-19T03:57:52.558Z,100706.02
2018-08-19T04:00:21.650Z,100706.20
2018-08-19T04:02:50.450Z,100708.41
2018-08-19T04:05:52.879Z,100707.19
2018-08-19T04:08:21.673Z,100707.69
2018-08-19T04:10:50.735Z,100704.66
2018-08-19T04:13:35.459Z,100703.30
2018-08-19T04:16:05.485Z,100695.52
2018-08-19T04:18:35.557Z,100702.27
2018-08-19T04:21:06.952Z,100699.93
2018-08-19T04:23:36.391Z,100703.85
2018-08-19T04:26:05.781Z,100714.14
2018-08-19T04:28:39.277Z,100711.80
2018-08-19T04:31:14.090Z,100718.91
2018-08-19T04:33:44.577Z,100717.56
2018-08-19T04:36:15.146Z,100709.77
2018-08-19T04:38:44.039Z,100709.09
2018-08-19T04:41:13.094Z,100719.91
2018-08-19T04:43:42.047Z,100717.03
2018-08-19T04:46:10.861Z,100724.33
2018-08-19T04:48:39.736Z,100718.91
2018-08-19T04:51:08.580Z,100719.73
2018-08-19T04:53:37.318Z,100729.06
2018-08-19T04:56:06.266Z,100733.62
2018-08-19T04:58:35.015Z,100729.06
2018-08-19T05:01:04.001Z,100729.56
2018-08-19T05:03:32.977Z,100735.17
2018-08-19T05:06:02.163Z,100736.34
2018-08-19T05:08:31.033Z,100732.65
2018-08-19T05:10:59.799Z,100732.48
2018-08-19T05:13:29.652Z,100735.91
2018-08-19T05:15:58.622Z,100740.28
2018-08-19T05:18:27.441Z,100737.77
2018-08-19T05:21:03.205Z,100744.53
2018-08-19T05:23:32.065Z,100748.95
2018-08-19T05:26:00.912Z,100752.66
2018-08-19T05:28:29.809Z,100752.52
2018-08-19T05:30:58.532Z,100748.45
2018-08-19T05:33:27.313Z,100757.07
2018-08-19T05:35:56.218Z,100748.95
2018-08-19T05:38:25.059Z,100746.44
2018-08-19T05:41:00.714Z,100750.32
2018-08-19T05:43:30.309Z,100742.06
2018-08-19T05:46:00.249Z,100754.93
2018-08-19T05:48:29.103Z,100747.17
2018-08-19T05:50:58.303Z,100742.94
2018-08-19T05:53:27.073Z,100745.48
2018-08-19T05:55:55.889Z,100746.19
2018-08-19T05:58:24.682Z,100746.02
2018-08-19T06:01:00.777Z,100758.39
2018-08-19T06:03:30.111Z,100756.84
2018-08-19T06:05:59.271Z,100753.36
2018-08-19T06:08:28.193Z,100755.05
2018-08-19T06:10:57.062Z,100762.66
2018-08-19T06:13:28.688Z,100759.96
2018-08-19T06:15:57.549Z,100758.97
2018-08-19T06:18:26.370Z,100767.94
2018-08-19T06:20:55.128Z,100765.23
2018-08-19T06:23:23.984Z,100766.91
2018-08-19T06:25:52.821Z,100763.35
2018-08-19T06:28:21.616Z,100763.22
2018-08-19T06:30:50.412Z,100758.66
2018-08-19T06:33:19.311Z,100762.55
2018-08-19T06:35:48.116Z,100761.02
2018-08-19T06:38:17.027Z,100758.67
2018-08-19T06:40:45.905Z,100762.59
2018-08-19T06:43:14.765Z,100749.23
2018-08-19T06:45:43.613Z,100754.12
2018-08-19T06:48:12.517Z,100751.78
2018-08-19T06:50:41.340Z,100752.46
2018-08-19T06:53:15.383Z,100747.73
2018-08-19T06:55:44.607Z,100746.23
2018-08-19T06:58:13.912Z,100748.77
2018-08-19T07:00:43.112Z,100741.36
2018-08-19T07:03:12.876Z,100740.83
2018-08-19T07:05:42.049Z,100740.83
2018-08-19T07:08:11.488Z,100755.77
2018-08-19T07:10:41.783Z,100751.70
2018-08-19T07:13:14.395Z,100756.95
2018-08-19T07:15:50.853Z,100756.81
2018-08-19T07:18:33.570Z,100749.51
2018-08-19T07:21:09.928Z,100749.36
2018-08-19T07:26:50.646Z,100758.98
2018-08-19T07:29:22.098Z,100757.80
2018-08-19T07:31:51.016Z,100762.03
2018-08-19T07:34:19.860Z,100763.39
2018-08-19T07:36:48.819Z,100756.77
2018-08-19T07:39:31.402Z,100762.67
2018-08-19T07:44:38.405Z,100755.39
2018-08-19T07:47:07.373Z,100757.61
2018-08-19T07:49:36.387Z,100755.89
2018-08-19T07:52:05.343Z,100750.98
2018-08-19T07:54:34.318Z,100754.19
2018-08-19T07:57:10.544Z,100771.64
2018-08-19T07:59:39.400Z,100767.72
2018-08-19T08:02:08.568Z,100769.08
2018-08-19T08:04:42.175Z,100778.05
2018-08-19T08:07:11.939Z,100769.57
2018-08-19T08:09:41.409Z,100771.45
2018-08-19T08:12:12.789Z,100778.72
2018-08-19T08:17:43.433Z,100775.16
2018-08-19T08:20:12.502Z,100778.03
2018-08-19T08:22:52.492Z,100787.66
2018-08-19T08:25:21.841Z,100781.91
2018-08-19T08:27:53.374Z,100779.34
2018-08-19T08:30:22.279Z,100761.42
2018-08-19T08:32:52.840Z,100768.69
2018-08-19T08:35:21.653Z,100766.48
2018-08-19T08:37:57.081Z,100766.98
2018-08-19T08:40:26.382Z,100767.15
2018-08-19T08:42:57.321Z,100768.50
2018-08-19T08:45:30.254Z,100772.56
2018-08-19T08:47:59.436Z,100769.00
2018-08-19T08:50:38.865Z,100760.88
2018-08-19T08:53:12.950Z,100760.52
2018-08-19T08:55:41.807Z,100768.14
2018-08-19T08:58:22.021Z,100772.20
2018-08-19T09:00:50.922Z,100763.23
2018-08-19T09:03:30.975Z,100767.65
2018-08-19T09:06:05.145Z,100770.84
2018-08-19T09:08:33.982Z,100773.92
2018-08-19T09:11:04.328Z,100773.42
2018-08-19T09:13:33.323Z,100776.45
2018-08-19T09:16:02.202Z,100784.25
2018-08-19T09:18:31.086Z,100784.57
2018-08-19T09:26:39.000Z,100809.24
2018-08-19T09:34:02.177Z,100811.62
2018-08-19T09:36:41.346Z,100812.92
2018-08-19T09:39:22.900Z,100812.73
2018-08-19T09:57:24.086Z,100807.84
2018-08-19T09:59:53.043Z,100809.20
2018-08-19T10:02:21.881Z,100815.83
2018-08-19T10:04:50.819Z,100809.75
2018-08-19T10:07:20.572Z,100807.73
2018-08-19T10:09:49.469Z,100804.36
2018-08-19T10:12:18.269Z,100802.02
2018-08-19T10:14:47.061Z,100807.30
2018-08-19T10:17:31.924Z,100807.63
2018-08-19T10:20:10.673Z,100811.18
2018-08-19T10:22:42.559Z,100813.03
2018-08-19T10:25:24.904Z,100812.04
2018-08-19T10:28:08.013Z,100807.63
2018-08-19T10:30:58.205Z,100819.66
2018-08-19T10:33:28.913Z,100816.09
2018-08-19T10:35:58.889Z,100818.44
2018-08-19T10:38:27.838Z,100822.86
2018-08-19T10:41:03.749Z,100825.89
2018-08-19T10:43:32.565Z,100830.98
2018-08-19T10:46:01.431Z,100837.25
2018-08-19T10:48:30.250Z,100845.86
2018-08-19T10:51:02.711Z,100836.39
2018-08-19T10:53:32.014Z,100834.18
2018-08-19T10:56:02.362Z,100851.27
2018-08-19T10:58:31.458Z,100853.12
2018-08-19T11:01:00.404Z,100842.80
2018-08-19T11:03:30.602Z,100846.00
2018-08-19T11:05:59.563Z,100840.58
2018-08-19T11:08:28.451Z,100857.67
2018-08-19T11:10:59.627Z,100844.51
2018-08-19T11:13:28.565Z,100849.55
2018-08-19T11:15:58.536Z,100849.06
2018-08-19T11:21:40.211Z,100859.88
2018-08-19T11:24:18.102Z,100860.74
2018-08-19T11:27:05.120Z,100853.12
2018-08-19T11:29:39.571Z,100864.80
2018-08-19T11:32:09.452Z,100863.45
2018-08-19T11:34:40.462Z,100858.53
2018-08-19T11:37:20.425Z,100851.27
2018-08-19T11:39:49.376Z,100850.77
2018-08-19T11:42:18.226Z,100860.74
2018-08-19T11:44:47.034Z,100854.83
2018-08-19T11:47:23.689Z,100857.01
2018-08-19T11:52:31.838Z,100869.55
2018-08-19T11:55:24.480Z,100855.66
2018-08-19T11:57:53.410Z,100855.66
2018-08-19T12:03:06.951Z,100867.50
2018-08-19T12:05:38.360Z,100858.53
2018-08-19T12:08:07.283Z,100851.77
2018-08-19T12:10:47.094Z,100866.48
2018-08-19T12:13:19.874Z,100857.87
2018-08-19T12:15:58.887Z,100860.57
2018-08-19T12:18:27.819Z,100864.14
2018-08-19T12:20:56.631Z,100865.48
2018-08-19T12:23:36.140Z,100864.50
2018-08-19T12:26:25.009Z,100867.53
2018-08-19T12:28:53.833Z,100863.47
2018-08-19T12:31:22.839Z,100860.77
2018-08-19T12:33:59.188Z,100867.39
2018-08-19T12:36:28.117Z,100872.27
2018-08-19T12:38:57.222Z,100866.37
2018-08-19T12:41:26.462Z,100873.13
2018-08-19T12:44:00.264Z,100873.50
2018-08-19T12:46:29.234Z,100870.79
2018-08-19T12:48:58.154Z,100872.14
2018-08-19T12:51:27.367Z,100870.79
2018-08-19T12:53:56.137Z,100868.94
2018-08-19T12:56:24.958Z,100863.53
2018-08-19T12:58:53.762Z,100867.59
2018-08-19T13:01:22.709Z,100868.41
2018-08-19T13:03:51.602Z,100861.81
2018-08-19T13:06:20.418Z,100865.88
2018-08-19T13:08:49.315Z,100869.08
2018-08-19T13:11:18.207Z,100870.92
2018-08-19T13:16:25.869Z,100870.59
2018-08-19T13:18:54.725Z,100868.75
2018-08-19T13:21:27.499Z,100869.94
2018-08-19T13:23:56.592Z,100870.92
2018-08-19T13:26:25.548Z,100869.57
2018-08-19T13:28:55.831Z,100872.81
2018-08-19T13:31:34.201Z,100868.75
2018-08-19T13:34:14.297Z,100882.28
2018-08-19T13:36:44.886Z,100878.22
2018-08-19T13:39:13.705Z,100879.21
2018-08-19T13:41:42.547Z,100876.01
2018-08-19T13:44:11.659Z,100877.36
2018-08-19T13:46:40.700Z,100872.61
2018-08-19T13:49:09.593Z,100876.67
2018-08-19T13:51:38.480Z,100888.32
2018-08-19T13:54:07.353Z,100878.85
2018-08-19T13:56:36.933Z,100875.81
2018-08-19T13:59:05.840Z,100882.91
2018-08-19T14:01:34.656Z,100883.44
2018-08-19T14:04:03.645Z,100882.58
2018-08-19T14:06:32.760Z,100892.05
2018-08-19T14:09:01.722Z,100882.91
2018-08-19T14:11:30.965Z,100873.44
2018-08-19T14:13:59.832Z,100871.26
2018-08-19T14:16:28.803Z,100877.17
2018-08-19T14:19:06.409Z,100880.73
2018-08-19T14:21:43.319Z,100877.50
2018-08-19T14:24:12.364Z,100883.44
2018-08-19T14:27:06.204Z,100884.79
2018-08-19T14:29:35.196Z,100885.78
2018-08-19T14:32:04.171Z,100889.84
2018-08-19T14:37:23.287Z,100892.05
2018-08-19T14:40:02.373Z,100892.91
2018-08-19T14:42:31.726Z,100897.95
2018-08-19T14:45:00.882Z,100897.59
2018-08-19T14:47:29.880Z,100897.59
2018-08-19T14:49:59.711Z,100895.75
2018-08-19T14:52:29.492Z,100890.83
2018-08-19T14:54:58.477Z,100895.25
2018-08-19T14:57:27.259Z,100888.48
2018-08-19T14:59:56.451Z,100896.61
2018-08-19T15:02:25.623Z,100891.69
2018-08-19T15:04:54.797Z,100885.42
2018-08-19T15:07:32.370Z,100887.63
2018-08-19T15:10:01.653Z,100887.30
2018-08-19T15:12:30.943Z,100892.19
2018-08-19T15:15:01.005Z,100893.20
2018-08-19T15:17:40.689Z,100886.45
2018-08-19T15:20:24.115Z,100891.00
2018-08-19T15:23:31.682Z,100889.64
2018-08-19T15:26:03.101Z,100888.09
2018-08-19T15:28:32.003Z,100892.65
2018-08-19T15:31:12.813Z,100888.76
2018-08-19T15:33:41.938Z,100897.38
2018-08-19T15:36:18.242Z,100889.75
2018-08-19T15:38:47.404Z,100889.75
2018-08-19T15:41:29.987Z,100891.11
2018-08-19T15:43:59.020Z,100893.45
2018-08-19T15:46:30.303Z,100898.03
2018-08-19T15:48:59.198Z,100886.69
2018-08-19T15:51:28.471Z,100884.64
2018-08-19T15:53:57.418Z,100891.77
2018-08-19T15:56:28.123Z,100874.95
2018-08-19T15:58:57.134Z,100888.70
2018-08-19T16:01:30.801Z,100887.34
2018-08-19T16:04:04.974Z,100889.72
2018-08-19T16:06:33.827Z,100889.20
2018-08-19T16:09:02.943Z,100882.23
2018-08-19T16:11:31.989Z,100886.30
2018-08-19T16:14:01.273Z,100884.94
2018-08-19T16:16:30.091Z,100889.53
2018-08-19T16:18:59.116Z,100890.87
2018-08-19T16:21:28.111Z,100890.52
2018-08-19T16:23:57.001Z,100895.92
2018-08-19T16:26:25.906Z,100889.66
2018-08-19T16:28:54.834Z,100884.25
2018-08-19T16:31:23.634Z,100879.86
2018-08-19T16:33:52.442Z,100878.52
2018-08-19T16:36:21.301Z,100873.10
2018-08-19T16:38:50.220Z,100874.95
2018-08-19T16:41:19.127Z,100873.92
2018-08-19T16:43:48.056Z,100877.48
2018-08-19T16:46:17.336Z,100876.63
2018-08-19T16:48:46.213Z,100873.43
2018-08-19T16:51:15.136Z,100879.34
2018-08-19T16:53:44.082Z,100878.84
2018-08-19T16:56:13.144Z,100881.55
2018-08-19T16:58:42.087Z,100873.92
2018-08-19T17:01:11.022Z,100878.84
2018-08-19T17:03:41.050Z,100878.52
2018-08-19T17:06:12.606Z,100881.55
2018-08-19T17:08:42.082Z,100880.69
2018-08-19T17:11:12.311Z,100881.22
2018-08-19T17:13:41.290Z,100885.27
2018-08-19T17:16:10.837Z,100879.86
2018-08-19T17:18:39.798Z,100885.27
2018-08-19T17:21:08.696Z,100882.56
2018-08-19T17:23:37.564Z,100879.86
2018-08-19T17:26:14.940Z,100877.16
2018-08-19T17:28:44.548Z,100877.66
2018-08-19T17:31:13.500Z,100874.45
2018-08-19T17:33:42.345Z,100868.69
2018-08-19T17:36:11.314Z,100870.53
2018-08-19T17:38:40.254Z,100869.17
2018-08-19T17:41:09.169Z,100866.47
2018-08-19T17:43:42.007Z,100861.06
2018-08-19T17:46:13.941Z,100853.44
2018-08-19T17:48:44.110Z,100853.97
2018-08-19T17:51:25.411Z,100859.38
2018-08-19T17:53:54.679Z,100850.91
2018-08-19T17:56:23.509Z,100854.60
2018-08-19T17:58:53.923Z,100861.53
2018-08-19T18:01:23.435Z,100859.68
2018-08-19T18:03:52.296Z,100857.47
2018-08-19T18:06:21.302Z,100854.77
2018-08-19T18:08:51.456Z,100853.91
2018-08-19T18:11:20.880Z,100853.55
2018-08-19T18:13:50.292Z,100849.48
2018-08-19T18:16:19.532Z,100860.84
2018-08-19T18:18:48.917Z,100859.12
2018-08-19T18:21:17.885Z,100857.77
2018-08-19T18:23:48.425Z,100858.77
2018-08-19T18:26:17.360Z,100862.81
2018-08-19T18:28:47.944Z,100870.60
2018-08-19T18:31:20.155Z,100867.54
2018-08-19T18:33:54.353Z,100868.89
2018-08-19T18:36:25.539Z,100870.41
2018-08-19T18:38:54.465Z,100864.14
2018-08-19T18:41:28.809Z,100869.19
2018-08-19T18:44:00.001Z,100865.66
2018-08-19T18:46:29.038Z,100866.65
2018-08-19T18:49:03.676Z,100868.17
2018-08-19T18:51:33.598Z,100863.58
2018-08-19T18:54:02.614Z,100854.28
2018-08-19T18:56:31.443Z,100851.22
2018-08-19T18:59:00.472Z,100854.41
2018-08-19T19:01:29.309Z,100857.13
2018-08-19T19:03:58.356Z,100851.38
2018-08-19T19:06:27.194Z,100854.58
2018-08-19T19:08:56.051Z,100855.08
2018-08-19T19:11:26.120Z,100852.87
2018-08-19T19:13:55.001Z,100852.38
2018-08-19T19:16:30.462Z,100850.16
2018-08-19T19:18:59.280Z,100848.31
2018-08-19T19:21:28.185Z,100850.16
2018-08-19T19:23:57.046Z,100848.81
2018-08-19T19:26:31.029Z,100839.34
2018-08-19T19:28:59.897Z,100838.52
2018-08-19T19:31:28.681Z,100836.31
2018-08-19T19:34:02.855Z,100832.25
2018-08-19T19:36:31.713Z,100833.11
2018-08-19T19:39:00.533Z,100835.82
2018-08-19T19:41:32.280Z,100839.02
2018-08-19T19:44:15.214Z,100826.84
2018-08-19T19:46:43.977Z,100833.61
2018-08-19T19:49:12.806Z,100834.11
2018-08-19T19:51:43.334Z,100830.91
2018-08-19T19:54:12.168Z,100830.55
2018-08-19T19:56:41.024Z,100828.33
2018-08-19T19:59:09.790Z,100826.48
2018-08-19T20:01:38.673Z,100827.84
2018-08-19T20:04:07.550Z,100827.34
2018-08-19T20:06:36.406Z,100828.33
2018-08-19T20:09:05.408Z,100823.45
2018-08-19T20:11:34.351Z,100826.84
2018-08-19T20:14:03.548Z,100818.73
2018-08-19T20:16:32.490Z,100818.08
2018-08-19T20:19:01.446Z,100810.66
2018-08-19T20:21:32.917Z,100814.08
2018-08-19T20:24:01.770Z,100815.63
2018-08-19T20:26:30.569Z,100808.70
2018-08-19T20:29:01.060Z,100807.18
2018-08-19T20:31:29.960Z,100808.73
2018-08-19T20:33:58.908Z,100797.28
2018-08-19T20:36:27.867Z,100797.61
2018-08-19T20:38:56.651Z,100787.28
2018-08-19T20:41:25.506Z,100792.75
2018-08-19T20:43:54.530Z,100797.16
2018-08-19T20:46:23.425Z,100799.70
2018-08-19T20:48:52.412Z,100798.72
2018-08-19T20:51:21.264Z,100795.48
2018-08-19T20:53:50.091Z,100796.70
2018-08-19T20:56:18.848Z,100797.88
2018-08-19T20:58:47.682Z,100795.67
2018-08-19T21:01:21.797Z,100788.41
2018-08-19T21:03:51.096Z,100787.91
2018-08-19T21:06:20.386Z,100781.16
2018-08-19T21:08:49.231Z,100785.57
2018-08-19T21:11:18.029Z,100787.42
2018-08-19T21:13:46.857Z,100774.39
2018-08-19T21:16:15.713Z,100782.01
2018-08-19T21:18:44.697Z,100779.80
2018-08-19T21:21:13.607Z,100779.80
2018-08-19T21:23:42.362Z,100786.92
2018-08-19T21:26:11.163Z,100782.50
2018-08-19T21:28:42.710Z,100782.01
2018-08-19T21:31:11.501Z,100781.16
2018-08-19T21:33:40.337Z,100773.20
2018-08-19T21:36:09.110Z,100774.03
2018-08-19T21:38:37.973Z,100778.09
2018-08-19T21:41:06.817Z,100774.03
2018-08-19T21:43:35.629Z,100771.85
2018-08-19T21:46:05.865Z,100772.67
2018-08-19T21:48:35.081Z,100761.36
2018-08-19T21:51:04.319Z,100765.91
2018-08-19T21:53:33.064Z,100762.22
2018-08-19T21:56:01.840Z,100766.63
2018-08-19T21:58:30.669Z,100767.98
2018-08-19T22:01:01.449Z,100762.05
2018-08-19T22:03:35.515Z,100767.32
2018-08-19T22:06:07.712Z,100758.34
2018-08-19T22:08:36.625Z,100760.55
2018-08-19T22:11:05.534Z,100768.01
2018-08-19T22:13:34.384Z,100763.59
2018-08-19T22:16:03.304Z,100766.16
2018-08-19T22:18:32.170Z,100768.37
2018-08-19T22:21:23.309Z,100765.13
2018-08-19T22:23:55.540Z,100761.61
2018-08-19T22:26:24.366Z,100762.95
2018-08-19T22:29:09.689Z,100758.90
2018-08-19T22:31:38.571Z,100758.90
2018-08-19T22:34:07.411Z,100757.55
2018-08-19T22:36:36.255Z,100761.08
2018-08-19T22:39:08.302Z,100757.02
2018-08-19T22:41:37.190Z,100748.41
2018-08-19T22:44:06.008Z,100738.94
2018-08-19T22:46:35.238Z,100737.09
2018-08-19T22:49:04.165Z,100740.15
2018-08-19T22:51:34.071Z,100737.94
2018-08-19T22:54:03.072Z,100736.28
2018-08-19T22:56:31.874Z,100732.89
2018-08-19T22:59:00.641Z,100726.13
2018-08-19T23:01:34.675Z,100721.21
2018-08-19T23:04:04.361Z,100716.13
2018-08-19T23:06:33.879Z,100718.34
2018-08-19T23:09:03.574Z,100705.30
2018-08-19T23:11:37.449Z,100713.42
2018-08-19T23:14:17.634Z,100712.23
2018-08-19T23:16:46.392Z,100708.31
2018-08-19T23:19:15.238Z,100712.91
2018-08-19T23:21:44.064Z,100713.73
2018-08-19T23:24:12.868Z,100711.55
2018-08-19T23:26:41.614Z,100715.75
2018-08-19T23:29:10.398Z,100710.84
2018-08-19T23:31:39.157Z,100715.25
2018-08-19T23:34:07.917Z,100715.42
2018-08-19T23:36:36.735Z,100718.13
2018-08-19T23:39:07.651Z,100720.84
2018-08-19T23:41:36.398Z,100717.27
2018-08-19T23:44:06.163Z,100711.50
2018-08-19T23:46:34.974Z,100718.27
2018-08-19T23:49:04.149Z,100713.35
2018-08-19T23:51:33.051Z,100718.77
2018-08-19T23:54:02.972Z,100721.14
2018-08-19T23:56:32.189Z,100717.09
2018-08-19T23:59:01.367Z,100722.99
